Time;durP1;ratioP1;P1;durP2;ratioP2;P2;SDS_P1;SDS_P2;PMS_P1;PMS_P2;Temp;Humidity;BMP_temperature;BMP_pressure;BME280_temperature;BME280_humidity;BME280_pressure;Samples;Min_cycle;Max_cycle;Signal;HPM_P1;HPM_P2
2022/05/19 00:02:19;;;;;;;29.17;20.10;;;14.80;99.90;;;;;;5015853;28;20136;-78
2022/05/19 00:04:46;;;;;;;30.60;18.35;;;14.90;99.90;;;;;;5032540;28;20486;-77
2022/05/19 00:07:15;;;;;;;32.83;20.13;;;15.00;99.90;;;;;;5015838;28;20140;-76
2022/05/19 00:09:42;;;;;;;33.10;19.40;;;15.00;99.90;;;;;;5015711;28;20554;-77
2022/05/19 00:12:12;;;;;;;25.38;17.90;;;15.00;99.90;;;;;;5033459;28;20084;-77
2022/05/19 00:14:38;;;;;;;24.98;18.83;;;15.00;99.90;;;;;;5033271;28;20104;-77
2022/05/19 00:17:06;;;;;;;27.83;19.42;;;15.10;99.90;;;;;;5032582;28;20131;-77
2022/05/19 00:19:33;;;;;;;28.98;18.38;;;15.10;99.90;;;;;;5032921;28;20128;-77
2022/05/19 00:21:59;;;;;;;28.45;18.75;;;15.10;99.90;;;;;;5016274;28;20137;-77
2022/05/19 00:24:28;;;;;;;28.55;19.65;;;15.10;99.90;;;;;;5032755;28;20088;-77
2022/05/19 00:26:55;;;;;;;29.35;19.80;;;15.10;99.90;;;;;;5032692;28;20132;-76
2022/05/19 00:29:22;;;;;;;30.65;19.65;;;15.10;99.90;;;;;;5033135;28;20096;-76
2022/05/19 00:31:49;;;;;;;27.50;19.50;;;15.10;99.90;;;;;;5014859;28;20057;-77
2022/05/19 00:34:16;;;;;;;29.48;20.60;;;15.10;99.90;;;;;;5015158;28;20524;-76
2022/05/19 00:36:44;;;;;;;32.03;20.65;;;15.10;99.90;;;;;;5033256;28;20128;-76
2022/05/19 00:39:12;;;;;;;29.17;22.05;;;15.10;99.90;;;;;;5014785;28;20562;-76
2022/05/19 00:41:43;;;;;;;27.75;21.58;;;15.00;99.90;;;;;;5015305;28;20071;-76
2022/05/19 00:44:10;;;;;;;33.13;22.40;;;15.00;99.90;;;;;;5015294;28;20130;-76
2022/05/19 00:46:43;;;;;;;37.28;23.50;;;15.00;99.90;;;;;;5032482;28;20081;-76
2022/05/19 00:49:14;;;;;;;32.38;24.15;;;15.00;99.90;;;;;;5015453;28;20136;-76
2022/05/19 00:51:46;;;;;;;30.92;23.13;;;14.90;99.90;;;;;;5032664;28;20133;-76
2022/05/19 00:54:17;;;;;;;32.75;23.88;;;14.90;99.90;;;;;;5032930;28;20124;-76
2022/05/19 00:56:51;;;;;;;31.42;23.92;;;14.80;99.90;;;;;;5032899;28;20088;-77
2022/05/19 00:59:24;;;;;;;32.70;24.52;;;14.80;99.90;;;;;;5015063;28;20136;-76
2022/05/19 01:01:51;;;;;;;38.17;24.25;;;14.80;99.90;;;;;;5033028;28;20140;-77
2022/05/19 01:04:25;;;;;;;36.00;24.63;;;14.80;99.90;;;;;;5014906;28;20077;-77
2022/05/19 01:06:57;;;;;;;38.50;25.50;;;14.80;99.90;;;;;;5014451;28;20081;-76
2022/05/19 01:09:24;;;;;;;31.75;23.42;;;14.80;99.90;;;;;;5014750;28;20172;-76
2022/05/19 01:11:55;;;;;;;33.70;23.85;;;14.70;99.90;;;;;;5015331;28;20133;-76
2022/05/19 01:14:22;;;;;;;34.80;24.73;;;14.80;99.90;;;;;;5032436;28;20115;-76
2022/05/19 01:16:49;;;;;;;40.08;24.92;;;14.80;99.90;;;;;;5032310;28;20084;-76
2022/05/19 01:19:24;;;;;;;34.47;24.63;;;14.90;99.90;;;;;;5015340;28;20473;-76
2022/05/19 01:21:54;;;;;;;32.40;24.65;;;14.80;99.90;;;;;;5032102;28;20077;-76
2022/05/19 01:24:30;;;;;;;37.28;24.42;;;14.70;99.90;;;;;;5014973;28;20497;-76
2022/05/19 01:26:59;;;;;;;32.97;24.13;;;14.70;99.90;;;;;;5014550;28;20107;-76
2022/05/19 01:29:29;;;;;;;37.10;26.23;;;14.70;99.90;;;;;;5032062;28;20136;-76
2022/05/19 01:31:58;;;;;;;34.90;27.08;;;14.80;99.90;;;;;;5014890;28;20497;-76
2022/05/19 01:34:28;;;;;;;32.43;27.03;;;14.70;99.90;;;;;;5032296;28;20073;-76
2022/05/19 01:36:55;;;;;;;39.03;27.92;;;14.70;99.90;;;;;;5032189;28;20537;-76
2022/05/19 01:39:24;;;;;;;35.50;26.50;;;14.80;99.90;;;;;;5032659;28;20081;-76
2022/05/19 01:42:09;;;;;;;36.10;28.88;;;14.70;99.90;;;;;;5015039;28;20487;-76
2022/05/19 01:44:49;;;;;;;38.97;27.25;;;14.80;99.90;;;;;;5035669;28;20125;-76
2022/05/19 01:47:23;;;;;;;45.28;29.08;;;14.80;99.90;;;;;;5036455;28;20053;-77
2022/05/19 01:49:54;;;;;;;41.83;29.52;;;14.80;99.90;;;;;;5035807;28;20053;-77
2022/05/19 01:52:25;;;;;;;40.92;29.02;;;14.90;99.90;;;;;;5018949;28;20404;-76
2022/05/19 01:54:58;;;;;;;34.35;27.98;;;15.00;99.90;;;;;;5035358;28;20570;-77
2022/05/19 01:57:29;;;;;;;39.53;28.40;;;15.00;99.90;;;;;;5018399;28;20084;-77
2022/05/19 02:00:04;;;;;;;39.85;26.77;;;15.10;99.90;;;;;;5019116;28;20136;-77
2022/05/19 02:02:40;;;;;;;37.78;26.92;;;15.10;99.90;;;;;;5038814;28;20088;-77
2022/05/19 02:05:16;;;;;;;46.42;27.88;;;15.10;99.90;;;;;;5019895;28;20472;-77
2022/05/19 02:07:46;;;;;;;38.95;27.60;;;15.20;99.90;;;;;;5036553;28;20111;-76
2022/05/19 02:10:17;;;;;;;39.45;28.67;;;15.20;99.90;;;;;;5036143;28;20113;-75
2022/05/19 02:12:48;;;;;;;43.75;28.48;;;15.20;99.90;;;;;;5036056;28;20137;-76
2022/05/19 02:15:18;;;;;;;44.13;29.52;;;15.20;99.90;;;;;;5018440;28;20132;-76
2022/05/19 02:17:47;;;;;;;38.58;28.27;;;15.20;99.90;;;;;;5017975;28;20474;-77
2022/05/19 02:20:19;;;;;;;42.45;30.45;;;15.30;99.90;;;;;;5018189;28;20091;-75
2022/05/19 02:22:46;;;;;;;41.67;30.60;;;15.30;99.90;;;;;;5036126;28;20132;-77
2022/05/19 02:25:21;;;;;;;47.72;31.55;;;15.20;99.90;;;;;;5017268;28;20449;-76
2022/05/19 02:27:53;;;;;;;44.53;33.13;;;15.30;99.90;;;;;;5036053;28;20132;-77
2022/05/19 02:30:22;;;;;;;50.88;34.00;;;15.30;99.90;;;;;;5016972;28;20172;-76
2022/05/19 02:32:49;;;;;;;50.60;35.83;;;15.30;99.90;;;;;;5017539;28;20081;-76
2022/05/19 02:35:17;;;;;;;52.63;38.53;;;15.30;99.90;;;;;;5036036;28;20049;-76
2022/05/19 02:37:44;;;;;;;51.33;39.83;;;15.30;99.90;;;;;;5034891;28;20045;-77
2022/05/19 02:40:14;;;;;;;56.90;42.05;;;15.30;99.90;;;;;;5017349;28;20084;-75
2022/05/19 02:42:41;;;;;;;56.08;41.72;;;15.30;99.90;;;;;;5035225;28;20049;-75
2022/05/19 02:45:11;;;;;;;52.72;41.30;;;15.30;99.90;;;;;;5034455;28;20096;-76
2022/05/19 02:47:37;;;;;;;52.17;39.60;;;15.30;99.90;;;;;;5017390;28;20141;-76
2022/05/19 02:50:06;;;;;;;57.38;41.85;;;15.30;99.90;;;;;;5017716;28;20144;-77
2022/05/19 02:52:33;;;;;;;55.00;42.17;;;15.30;99.90;;;;;;5033919;28;20049;-76
2022/05/19 02:55:00;;;;;;;55.80;40.17;;;15.40;99.90;;;;;;5016780;28;20136;-76
2022/05/19 02:57:27;;;;;;;55.25;42.05;;;15.40;99.90;;;;;;5034836;28;20128;-77
2022/05/19 02:59:53;;;;;;;57.42;39.90;;;15.40;99.90;;;;;;5017158;28;20061;-78
2022/05/19 03:02:22;;;;;;;50.42;39.53;;;15.40;99.90;;;;;;5017291;28;20103;-78
2022/05/19 03:04:49;;;;;;;50.53;39.05;;;15.50;99.90;;;;;;5015802;28;20511;-78
2022/05/19 03:07:15;;;;;;;53.53;37.67;;;15.50;99.90;;;;;;5015756;28;20089;-78
2022/05/19 03:09:45;;;;;;;46.58;37.25;;;15.50;99.90;;;;;;5017075;28;20123;-77
2022/05/19 03:12:12;;;;;;;50.03;34.70;;;15.50;99.90;;;;;;5016839;28;20107;-77
2022/05/19 03:14:39;;;;;;;49.25;37.17;;;15.50;99.90;;;;;;5017266;28;20103;-78
2022/05/19 03:17:07;;;;;;;45.22;36.03;;;15.60;99.90;;;;;;5017337;28;20476;-77
2022/05/19 03:19:35;;;;;;;43.05;34.42;;;15.60;99.90;;;;;;5034165;28;20427;-78
2022/05/19 03:22:03;;;;;;;47.35;35.53;;;15.60;99.90;;;;;;5016316;28;20484;-78
2022/05/19 03:24:30;;;;;;;51.92;35.63;;;15.60;99.90;;;;;;5034828;28;20049;-77
2022/05/19 03:26:56;;;;;;;47.38;34.35;;;15.60;99.90;;;;;;5016941;28;20438;-77
2022/05/19 03:29:24;;;;;;;47.88;34.13;;;15.60;99.90;;;;;;5017200;28;20141;-77
2022/05/19 03:31:51;;;;;;;50.58;33.92;;;15.70;99.90;;;;;;5034446;28;20474;-77
2022/05/19 03:34:18;;;;;;;47.75;35.22;;;15.70;99.90;;;;;;5016346;28;20084;-78
2022/05/19 03:36:48;;;;;;;58.38;35.95;;;15.70;99.90;;;;;;5016677;28;20049;-77
2022/05/19 03:39:15;;;;;;;;;;;15.80;99.90;;;;;;5018073;28;20061;-78
2022/05/19 03:41:42;;;;;;;45.78;33.13;;;15.70;99.90;;;;;;5017027;28;19921;-77
2022/05/19 03:44:08;;;;;;;49.70;34.00;;;15.80;99.90;;;;;;5017825;28;20509;-77
2022/05/19 03:46:35;;;;;;;48.38;34.00;;;15.80;99.90;;;;;;5035462;28;20568;-78
2022/05/19 03:49:02;;;;;;;51.72;36.30;;;15.80;99.90;;;;;;5016144;28;20457;-76
2022/05/19 03:51:31;;;;;;;46.20;32.53;;;15.80;99.90;;;;;;5015777;28;20049;-76
2022/05/19 03:53:59;;;;;;;46.35;34.03;;;15.80;99.90;;;;;;5016465;28;20133;-77
2022/05/19 03:56:27;;;;;;;46.95;33.25;;;15.90;99.90;;;;;;5015424;28;20077;-76
2022/05/19 03:58:54;;;;;;;47.20;32.90;;;15.90;99.90;;;;;;5034061;28;20092;-77
2022/05/19 04:01:21;;;;;;;44.05;31.85;;;15.90;99.90;;;;;;5033824;28;20528;-77
2022/05/19 04:03:49;;;;;;;46.67;31.42;;;16.00;99.90;;;;;;5032967;28;20136;-77
2022/05/19 04:06:17;;;;;;;48.38;32.47;;;16.10;99.90;;;;;;5014964;28;20057;-77
2022/05/19 04:08:44;;;;;;;43.03;31.05;;;16.10;99.90;;;;;;5015592;28;20046;-76
2022/05/19 04:11:12;;;;;;;47.88;31.83;;;16.20;99.90;;;;;;5016142;28;20092;-77
2022/05/19 04:13:39;;;;;;;40.13;29.25;;;16.20;99.90;;;;;;5016071;28;20088;-76
2022/05/19 04:16:06;;;;;;;44.08;32.22;;;16.30;99.90;;;;;;5015370;28;20088;-77
2022/05/19 04:18:33;;;;;;;43.85;31.23;;;16.30;99.90;;;;;;5015518;28;20144;-75
2022/05/19 04:21:00;;;;;;;47.97;31.95;;;16.30;99.90;;;;;;5032917;28;20128;-77
2022/05/19 04:23:27;;;;;;;43.78;31.77;;;16.40;99.90;;;;;;5033034;28;20119;-77
2022/05/19 04:25:56;;;;;;;42.88;31.77;;;16.40;99.90;;;;;;5032706;28;20585;-77
2022/05/19 04:28:25;;;;;;;46.93;32.80;;;16.40;99.90;;;;;;5033178;28;20049;-77
2022/05/19 04:30:52;;;;;;;43.22;32.35;;;16.40;99.90;;;;;;5014710;28;20145;-76
2022/05/19 04:33:19;;;;;;;46.17;32.10;;;16.50;99.90;;;;;;5009355;28;20065;-76
2022/05/19 04:35:46;;;;;;;40.13;30.63;;;16.60;99.90;;;;;;5008679;28;20167;-75
2022/05/19 04:38:14;;;;;;;44.65;31.02;;;16.70;99.90;;;;;;5021552;28;20137;-75
2022/05/19 04:40:44;;;;;;;47.30;33.40;;;16.80;99.90;;;;;;5005569;28;20147;-75
2022/05/19 04:43:11;;;;;;;48.70;35.80;;;16.90;99.90;;;;;;5012911;28;20156;-76
2022/05/19 04:45:39;;;;;;;51.97;36.47;;;17.10;99.90;;;;;;5008726;28;20136;-76
2022/05/19 04:48:07;;;;;;;47.47;34.53;;;17.10;99.90;;;;;;5006865;28;20091;-76
2022/05/19 04:50:33;;;;;;;45.60;33.88;;;17.20;99.90;;;;;;5027065;28;20088;-76
2022/05/19 04:53:01;;;;;;;45.58;35.20;;;17.40;99.90;;;;;;5028763;28;20085;-76
2022/05/19 04:55:28;;;;;;;54.63;38.05;;;17.60;99.90;;;;;;5007050;28;20128;-76
2022/05/19 04:57:55;;;;;;;51.33;36.88;;;17.70;99.90;;;;;;5007802;28;20156;-76
2022/05/19 05:00:22;;;;;;;49.22;35.38;;;17.80;99.90;;;;;;5027707;28;20081;-76
2022/05/19 05:02:50;;;;;;;46.67;35.70;;;17.80;99.90;;;;;;5027590;28;20129;-76
2022/05/19 05:05:18;;;;;;;47.97;36.30;;;17.90;99.90;;;;;;5007480;28;20069;-76
2022/05/19 05:07:44;;;;;;;47.50;36.75;;;17.90;99.90;;;;;;5025958;28;20104;-77
2022/05/19 05:10:14;;;;;;;46.80;36.17;;;17.90;99.90;;;;;;5025645;28;20112;-75
2022/05/19 05:12:40;;;;;;;52.83;36.78;;;18.00;99.90;;;;;;5008079;28;20517;-76
2022/05/19 05:15:09;;;;;;;53.42;36.67;;;18.00;99.90;;;;;;5008956;28;20115;-76
2022/05/19 05:17:36;;;;;;;51.70;38.03;;;18.10;99.90;;;;;;5029437;28;20056;-76
2022/05/19 05:20:08;;;;;;;47.40;34.13;;;18.10;99.90;;;;;;5012265;28;20141;-75
2022/05/19 05:22:36;;;;;;;43.60;32.67;;;18.20;99.90;;;;;;5012846;28;20096;-75
2022/05/19 05:25:04;;;;;;;45.50;31.45;;;18.30;99.90;;;;;;5011485;28;20092;-75
2022/05/19 05:27:31;;;;;;;42.88;33.40;;;18.40;99.90;;;;;;5028398;28;20542;-76
2022/05/19 05:29:57;;;;;;;40.33;33.40;;;18.50;99.90;;;;;;5018361;28;20474;-77
2022/05/19 05:32:24;;;;;;;48.65;33.72;;;18.50;99.90;;;;;;4985335;28;20460;-75
2022/05/19 05:34:51;;;;;;;43.30;33.90;;;18.60;99.90;;;;;;4998147;28;20089;-75
2022/05/19 05:37:19;;;;;;;42.08;31.83;;;18.60;99.90;;;;;;4985684;28;20137;-76
2022/05/19 05:39:46;;;;;;;41.25;31.63;;;18.70;99.90;;;;;;5007006;28;20124;-76
2022/05/19 05:42:15;;;;;;;45.45;33.70;;;18.80;99.90;;;;;;4985030;28;20085;-76
2022/05/19 05:44:42;;;;;;;45.05;33.28;;;18.90;99.90;;;;;;4979149;28;20081;-77
2022/05/19 05:47:09;;;;;;;40.40;31.05;;;18.80;99.90;;;;;;5003953;28;20049;-77
2022/05/19 05:49:36;;;;;;;42.97;33.20;;;19.30;99.90;;;;;;4974509;28;20511;-78
2022/05/19 05:52:04;;;;;;;40.78;30.58;;;19.50;99.90;;;;;;5015657;28;20489;-75
2022/05/19 05:54:32;;;;;;;46.15;32.15;;;19.60;99.90;;;;;;5011697;28;20060;-77
2022/05/19 05:57:00;;;;;;;37.53;29.85;;;19.50;99.90;;;;;;5014584;28;20133;-78
2022/05/19 05:59:27;;;;;;;41.40;29.38;;;19.60;99.90;;;;;;5013164;28;20085;-76
2022/05/19 06:01:53;;;;;;;34.75;29.08;;;19.50;99.90;;;;;;5012665;28;20053;-78
2022/05/19 06:04:21;;;;;;;38.78;28.95;;;19.70;99.90;;;;;;4997221;28;20132;-78
2022/05/19 06:06:47;;;;;;;34.15;27.20;;;19.70;99.90;;;;;;4997225;28;20084;-78
2022/05/19 06:09:15;;;;;;;34.92;24.85;;;19.80;99.90;;;;;;4996981;28;20453;-80
2022/05/19 06:11:43;;;;;;;35.55;23.92;;;19.90;99.90;;;;;;4996896;28;20476;-78
2022/05/19 06:14:10;;;;;;;29.17;22.73;;;19.90;99.90;;;;;;4995449;28;20050;-78
2022/05/19 06:16:38;;;;;;;25.70;21.77;;;20.00;99.90;;;;;;4996840;28;20060;-78
2022/05/19 06:19:04;;;;;;;32.80;21.92;;;20.10;99.90;;;;;;5015552;28;20077;-78
2022/05/19 06:21:34;;;;;;;28.05;22.58;;;20.20;99.90;;;;;;5015436;28;20683;-77
2022/05/19 06:24:01;;;;;;;29.80;22.35;;;20.30;99.90;;;;;;4997400;28;20089;-79
2022/05/19 06:26:32;;;;;;;29.80;23.08;;;20.50;99.90;;;;;;4998958;28;20050;-80
2022/05/19 06:29:01;;;;;;;26.38;20.55;;;20.50;99.90;;;;;;5001966;28;20497;-77
2022/05/19 06:31:28;;;;;;;29.58;20.58;;;20.50;99.90;;;;;;5034900;28;20111;-78
2022/05/19 06:33:55;;;;;;;26.10;19.45;;;20.50;99.90;;;;;;5017739;28;20092;-79
2022/05/19 06:36:21;;;;;;;24.60;18.63;;;20.60;99.90;;;;;;5016772;28;20081;-77
2022/05/19 06:38:48;;;;;;;28.08;19.23;;;20.60;99.90;;;;;;5017370;28;20493;-78
2022/05/19 06:44:06;;;;;;;26.08;17.92;;;20.60;99.90;;;;;;5001157;28;20063;-78
2022/05/19 06:46:33;;;;;;;28.05;18.70;;;20.60;99.90;;;;;;5047640;28;20401;-77
2022/05/19 06:49:02;;;;;;;21.70;17.85;;;20.70;99.90;;;;;;5049544;28;20049;-77
2022/05/19 06:51:29;;;;;;;21.63;18.85;;;20.60;99.90;;;;;;5046117;28;20055;-77
2022/05/19 06:53:56;;;;;;;23.10;18.02;;;20.60;99.90;;;;;;5014277;28;20382;-77
2022/05/19 06:56:23;;;;;;;23.67;17.67;;;20.50;99.90;;;;;;5033752;28;20049;-77
2022/05/19 06:58:50;;;;;;;25.73;18.27;;;20.30;99.90;;;;;;5014364;28;20056;-78
2022/05/19 07:01:18;;;;;;;23.30;17.73;;;20.20;99.90;;;;;;5033097;28;20119;-78
2022/05/19 07:03:45;;;;;;;25.25;17.90;;;20.10;99.90;;;;;;5032995;28;20665;-78
2022/05/19 07:06:12;;;;;;;20.80;17.20;;;20.10;99.90;;;;;;5032722;28;20540;-77
2022/05/19 07:08:40;;;;;;;21.50;16.98;;;19.90;99.90;;;;;;5016491;28;20137;-78
2022/05/19 07:11:24;;;;;;;22.80;17.92;;;19.90;99.90;;;;;;5033584;28;20569;-77
2022/05/19 07:13:52;;;;;;;20.27;16.13;;;19.90;99.90;;;;;;5034128;28;20129;-77
2022/05/19 07:16:20;;;;;;;22.90;16.98;;;19.90;99.90;;;;;;5034201;28;20072;-78
2022/05/19 07:18:47;;;;;;;22.80;16.63;;;19.90;99.90;;;;;;5034040;28;20895;-78
2022/05/19 07:21:14;;;;;;;24.42;17.65;;;20.00;99.90;;;;;;5016346;28;20536;-79
2022/05/19 07:23:41;;;;;;;22.60;17.45;;;20.00;99.90;;;;;;5032863;28;20437;-78
2022/05/19 07:26:08;;;;;;;23.17;16.40;;;20.00;99.90;;;;;;5015200;28;20451;-78
2022/05/19 07:28:35;;;;;;;24.30;19.00;;;20.10;99.90;;;;;;5015625;28;20057;-78
2022/05/19 07:31:02;;;;;;;28.88;18.88;;;20.10;99.90;;;;;;5031475;28;20195;-77
2022/05/19 07:33:34;;;;;;;23.92;18.00;;;20.00;99.90;;;;;;5014158;28;20056;-79
2022/05/19 07:36:06;;;;;;;22.05;17.40;;;20.00;99.90;;;;;;5014971;28;20489;-78
2022/05/19 07:38:33;;;;;;;25.00;18.63;;;19.90;99.90;;;;;;5014795;28;20054;-78
2022/05/19 07:41:00;;;;;;;27.80;18.40;;;19.90;99.90;;;;;;5031892;28;20511;-78
2022/05/19 07:43:39;;;;;;;23.02;18.52;;;19.80;99.90;;;;;;5016787;28;20513;-79
2022/05/19 07:46:07;;;;;;;23.80;18.55;;;19.80;99.90;;;;;;5016909;28;20512;-78
2022/05/19 07:48:35;;;;;;;25.60;18.08;;;19.70;99.90;;;;;;5032795;28;20501;-77
2022/05/19 07:51:03;;;;;;;21.85;16.48;;;19.80;99.90;;;;;;5033048;28;20085;-78
2022/05/19 07:53:30;;;;;;;16.75;11.30;;;19.80;99.90;;;;;;5015309;28;20061;-78
2022/05/19 07:55:57;;;;;;;15.82;11.70;;;19.80;99.90;;;;;;5031559;28;20137;-79
2022/05/19 07:58:24;;;;;;;15.30;11.13;;;19.80;99.90;;;;;;5015932;28;20084;-78
2022/05/19 08:00:52;;;;;;;19.15;13.70;;;19.90;99.90;;;;;;5032653;28;20053;-77
2022/05/19 08:03:22;;;;;;;16.90;12.05;;;19.90;99.90;;;;;;5005398;28;20552;-78
2022/05/19 08:05:51;;;;;;;18.27;13.48;;;19.90;99.90;;;;;;5015422;28;20056;-78
2022/05/19 08:08:18;;;;;;;18.95;14.73;;;19.90;99.90;;;;;;5014448;28;20146;-78
2022/05/19 08:10:45;;;;;;;23.23;14.68;;;20.00;99.90;;;;;;5032473;28;20060;-79
2022/05/19 08:15:56;;;;;;;17.00;10.10;;;20.20;99.90;;;;;;5014667;28;20191;-78
2022/05/19 08:18:25;;;;;;;16.35;9.13;;;20.20;99.90;;;;;;5015705;28;20150;-78
2022/05/19 08:20:56;;;;;;;16.00;9.23;;;20.30;99.90;;;;;;5015148;28;20069;-78
2022/05/19 08:23:26;;;;;;;16.60;9.35;;;20.30;99.90;;;;;;5032753;28;20444;-78
2022/05/19 08:25:54;;;;;;;20.10;9.88;;;20.30;99.90;;;;;;5015342;28;20478;-78
2022/05/19 08:28:20;;;;;;;14.85;7.78;;;20.20;99.90;;;;;;5016008;28;20084;-78
2022/05/19 08:30:51;;;;;;;17.33;7.43;;;20.20;99.90;;;;;;5032040;28;20130;-79
2022/05/19 08:33:19;;;;;;;15.35;9.02;;;20.20;99.90;;;;;;5015805;28;20409;-79
2022/05/19 08:35:45;;;;;;;14.13;9.43;;;20.20;99.90;;;;;;5015071;28;20137;-78
2022/05/19 08:38:14;;;;;;;14.10;8.02;;;20.30;99.90;;;;;;5014355;28;20084;-77
2022/05/19 08:40:45;;;;;;;13.98;8.32;;;20.40;99.90;;;;;;5014338;28;20061;-78
2022/05/19 08:43:17;;;;;;;14.23;8.75;;;20.50;99.90;;;;;;5033993;28;20081;-78
2022/05/19 08:45:48;;;;;;;16.77;8.73;;;20.50;99.90;;;;;;5033950;28;20053;-79
2022/05/19 08:48:19;;;;;;;14.68;8.50;;;20.50;99.90;;;;;;5010982;28;20114;-79
2022/05/19 08:50:50;;;;;;;17.52;8.65;;;20.80;99.90;;;;;;5031705;28;20516;-78
2022/05/19 08:53:24;;;;;;;11.52;7.82;;;21.00;99.90;;;;;;5014983;28;20137;-79
2022/05/19 08:55:55;;;;;;;12.10;8.02;;;21.20;99.90;;;;;;5031819;28;20387;-79
2022/05/19 08:58:43;;;;;;;13.48;7.22;;;21.30;99.90;;;;;;5014690;28;20085;-79
2022/05/19 09:01:16;;;;;;;12.05;8.75;;;21.70;99.90;;;;;;5032065;28;20071;-79
2022/05/19 09:03:54;;;;;;;14.05;8.43;;;22.00;99.90;;;;;;5019266;28;20078;-78
2022/05/19 09:07:56;;;;;;;15.95;7.85;;;22.40;99.90;;;;;;5013177;28;20490;-79
2022/05/19 09:09:44;;;;;;;13.35;7.03;;;22.70;99.90;;;;;;5015798;28;20449;-78
2022/05/19 09:12:18;;;;;;;8.77;6.20;;;23.30;99.90;;;;;;5014348;28;20498;-79
2022/05/19 09:14:45;;;;;;;12.90;6.63;;;23.60;99.90;;;;;;5015292;28;20057;-79
2022/05/19 09:17:14;;;;;;;12.75;6.53;;;23.90;99.90;;;;;;5032630;28;20128;-79
2022/05/19 09:19:46;;;;;;;11.90;5.88;;;24.10;99.90;;;;;;5002442;28;20519;-78
2022/05/19 09:22:15;;;;;;;9.98;5.55;;;24.20;99.90;;;;;;5004315;28;20103;-79
2022/05/19 09:24:47;;;;;;;9.52;5.28;;;24.60;99.90;;;;;;5032344;28;20053;-79
2022/05/19 09:27:14;;;;;;;10.30;5.00;;;24.70;99.90;;;;;;5031743;28;20547;-78
2022/05/19 09:29:43;;;;;;;7.60;4.50;;;24.60;99.90;;;;;;5015039;28;20497;-80
2022/05/19 09:32:14;;;;;;;9.38;5.18;;;24.90;99.90;;;;;;5031918;28;20091;-78
2022/05/19 09:34:44;;;;;;;8.70;5.22;;;25.00;99.90;;;;;;5013994;28;20061;-78
2022/05/19 09:37:14;;;;;;;7.10;4.80;;;25.20;99.90;;;;;;5014658;28;20045;-79
2022/05/19 09:39:54;;;;;;;6.60;5.10;;;25.80;99.90;;;;;;5014434;28;20151;-79
2022/05/19 09:42:33;;;;;;;8.02;4.63;;;25.90;99.90;;;;;;5014523;28;20067;-80
2022/05/19 09:45:00;;;;;;;7.90;4.57;;;26.00;99.90;;;;;;5006348;28;20060;-79
2022/05/19 09:47:33;;;;;;;7.18;4.45;;;26.00;99.90;;;;;;4993353;28;20050;-79
2022/05/19 09:50:11;;;;;;;10.15;5.45;;;26.10;99.90;;;;;;5011854;28;20045;-79
2022/05/19 09:52:41;;;;;;;8.50;4.90;;;26.30;99.90;;;;;;5032403;28;20128;-80
2022/05/19 09:55:13;;;;;;;9.60;5.03;;;26.30;99.90;;;;;;5012963;28;20049;-79
2022/05/19 09:57:45;;;;;;;8.07;4.97;;;26.30;99.90;;;;;;5014229;28;20042;-80
2022/05/19 10:00:32;;;;;;;8.52;5.38;;;26.40;99.90;;;;;;5014412;28;20127;-78
2022/05/19 10:03:01;;;;;;;9.30;5.22;;;26.70;99.00;;;;;;5004858;28;20057;-79
2022/05/19 10:05:36;;;;;;;7.65;4.78;;;26.60;99.90;;;;;;5017997;28;20127;-80
2022/05/19 10:08:07;;;;;;;6.45;4.68;;;26.80;99.10;;;;;;5017273;28;20311;-79
2022/05/19 10:10:43;;;;;;;8.95;4.97;;;26.80;99.00;;;;;;5018259;28;20140;-79
2022/05/19 10:13:16;;;;;;;7.15;4.40;;;26.60;98.80;;;;;;5017696;28;20137;-78
2022/05/19 10:15:53;;;;;;;7.25;4.28;;;26.50;99.30;;;;;;5016464;28;20045;-79
2022/05/19 10:18:38;;;;;;;7.82;4.25;;;26.60;98.90;;;;;;5017803;28;20054;-80
2022/05/19 10:21:15;;;;;;;10.75;4.65;;;26.80;97.50;;;;;;5035490;28;20049;-80
2022/05/19 10:24:07;;;;;;;7.78;3.60;;;27.30;98.10;;;;;;5034155;28;20067;-80
2022/05/19 10:26:47;;;;;;;6.88;3.15;;;28.20;96.30;;;;;;5016682;28;20049;-77
2022/05/19 10:32:35;;;;;;;6.40;3.20;;;28.70;93.40;;;;;;5034851;28;20527;-80
2022/05/19 10:35:08;;;;;;;8.68;3.47;;;29.20;91.20;;;;;;5035503;28;20052;-79
2022/05/19 10:37:46;;;;;;;6.90;2.50;;;29.90;91.80;;;;;;5034612;28;20486;-79
2022/05/19 10:40:23;;;;;;;5.13;3.20;;;30.60;87.20;;;;;;5018286;28;20504;-80
2022/05/19 10:43:00;;;;;;;6.72;2.97;;;30.90;88.90;;;;;;5017569;28;20045;-79
2022/05/19 10:45:28;;;;;;;5.35;3.30;;;30.70;84.70;;;;;;5017391;28;20057;-80
2022/05/19 10:48:20;;;;;;;6.53;2.90;;;30.00;86.80;;;;;;5018210;28;20133;-80
2022/05/19 10:50:54;;;;;;;9.02;4.00;;;29.60;86.60;;;;;;5012199;28;20063;-78
2022/05/19 10:53:39;;;;;;;5.95;3.03;;;29.20;86.60;;;;;;5009404;28;20061;-78
2022/05/19 10:56:20;;;;;;;6.90;3.58;;;29.10;87.00;;;;;;5004136;28;20053;-79
2022/05/19 10:59:06;;;;;;;5.07;3.42;;;29.00;88.60;;;;;;5003125;28;20476;-79
2022/05/19 11:01:48;;;;;;;4.05;2.83;;;29.40;86.90;;;;;;5004294;28;20068;-77
2022/05/19 11:04:52;;;;;;;7.00;4.50;;;29.40;86.50;;;;;;5003691;28;20508;-81
2022/05/19 11:07:37;;;;;;;8.73;5.97;;;29.70;86.60;;;;;;5003759;28;20057;-79
2022/05/19 11:10:17;;;;;;;7.72;5.57;;;29.90;87.00;;;;;;5022337;28;20111;-78
2022/05/19 11:12:47;;;;;;;;;;;29.90;86.60;;;;;;5020906;28;20068;-79
2022/05/19 11:15:25;;;;;;;5.28;4.40;;;29.90;82.90;;;;;;5004139;28;19932;-78
2022/05/19 11:18:09;;;;;;;8.43;5.43;;;29.90;84.30;;;;;;5003800;28;20126;-79
2022/05/19 11:20:53;;;;;;;6.30;4.57;;;30.20;84.20;;;;;;5003832;28;20140;-78
2022/05/19 11:23:25;;;;;;;8.65;4.80;;;30.60;83.80;;;;;;5020297;28;20053;-79
2022/05/19 11:29:01;;;;;;;5.10;4.00;;;30.80;80.60;;;;;;5017359;28;20053;-79
2022/05/19 11:31:37;;;;;;;5.40;3.20;;;30.50;80.70;;;;;;5000207;28;20143;-78
2022/05/19 11:34:08;;;;;;;6.30;5.20;;;30.10;79.70;;;;;;4980054;28;20061;-80
2022/05/19 11:36:39;;;;;;;6.63;4.43;;;30.00;80.40;;;;;;4978484;28;20181;-77
2022/05/19 11:39:15;;;;;;;6.35;4.38;;;29.80;80.70;;;;;;4973680;28;20204;-80
2022/05/19 11:41:42;;;;;;;7.45;4.97;;;29.60;80.90;;;;;;4980054;28;20069;-79
2022/05/19 11:44:15;;;;;;;10.27;6.57;;;29.40;81.10;;;;;;4980724;28;20116;-78
2022/05/19 11:46:49;;;;;;;8.82;7.05;;;28.70;82.90;;;;;;4977086;28;20096;-79
2022/05/19 11:55:15;;;;;;;9.80;6.85;;;28.80;84.50;;;;;;4993972;28;20077;-80
2022/05/19 11:57:47;;;;;;;9.20;6.60;;;28.80;84.30;;;;;;4995464;28;20129;-80
2022/05/19 12:00:21;;;;;;;9.80;5.75;;;28.70;84.50;;;;;;4995330;28;20061;-79
2022/05/19 12:02:54;;;;;;;8.70;6.55;;;28.40;85.40;;;;;;5012957;28;20049;-80
2022/05/19 12:05:29;;;;;;;9.00;7.28;;;28.40;85.70;;;;;;4996651;28;20137;-80
2022/05/19 12:08:00;;;;;;;10.40;7.35;;;28.20;86.10;;;;;;4995512;28;20382;-80
2022/05/19 12:10:36;;;;;;;9.50;8.18;;;27.80;86.60;;;;;;4996179;28;20085;-80
2022/05/19 12:13:04;;;;;;;10.52;7.82;;;27.50;87.90;;;;;;5013651;28;20085;-80
2022/05/19 12:15:39;;;;;;;10.77;8.38;;;27.20;89.50;;;;;;4995589;28;20108;-80
2022/05/19 12:18:35;;;;;;;13.73;8.52;;;26.90;90.70;;;;;;5013333;28;20501;-79
2022/05/19 12:21:39;;;;;;;10.15;7.72;;;26.50;91.60;;;;;;4995504;28;20132;-78
2022/05/19 12:24:09;;;;;;;10.98;7.80;;;26.10;92.80;;;;;;4973220;28;20116;-79
2022/05/19 12:26:45;;;;;;;10.40;8.63;;;25.90;92.90;;;;;;4995736;28;20133;-79
2022/05/19 12:29:24;;;;;;;10.95;8.88;;;25.80;93.70;;;;;;5017294;28;20523;-79
2022/05/19 12:31:59;;;;;;;14.95;10.25;;;25.70;94.60;;;;;;5015821;28;20048;-79
2022/05/19 12:34:31;;;;;;;16.33;9.55;;;25.50;95.10;;;;;;5015165;28;20048;-80
2022/05/19 12:37:09;;;;;;;11.20;8.05;;;25.40;95.70;;;;;;5030337;28;20053;-80
2022/05/19 12:40:11;;;;;;;8.70;7.72;;;25.30;96.20;;;;;;5033173;28;20077;-80
2022/05/19 12:42:41;;;;;;;15.20;9.77;;;25.20;97.00;;;;;;5012931;28;20092;-79
2022/05/19 12:45:17;;;;;;;15.05;10.63;;;25.00;97.90;;;;;;5011930;28;20676;-80
2022/05/19 12:47:56;;;;;;;12.82;9.52;;;24.80;99.90;;;;;;4995855;28;20099;-80
2022/05/19 12:50:26;;;;;;;12.13;9.15;;;24.50;99.90;;;;;;5000082;28;20405;-80
2022/05/19 12:53:05;;;;;;;16.38;10.23;;;24.40;99.90;;;;;;5013874;28;20516;-79
2022/05/19 12:55:51;;;;;;;23.48;10.60;;;24.20;99.90;;;;;;5016191;28;20067;-79
2022/05/19 12:58:47;;;;;;;16.30;6.50;;;23.70;99.90;;;;;;5013863;28;20583;-78
2022/05/19 13:01:19;;;;;;;14.30;4.88;;;22.80;99.90;;;;;;5032362;28;20053;-78
2022/05/19 13:03:51;;;;;;;6.22;3.95;;;22.20;99.90;;;;;;5031803;28;20049;-78
2022/05/19 13:06:22;;;;;;;4.50;2.17;;;21.80;99.90;;;;;;5014335;28;20088;-79
2022/05/19 13:08:54;;;;;;;3.17;1.83;;;21.40;99.90;;;;;;5032711;28;20445;-79
2022/05/19 13:11:27;;;;;;;5.38;2.78;;;21.10;99.90;;;;;;5032134;28;20053;-79